createdAt,value
2019-02-05T00:00:12.992Z,1017.77
2019-02-05T00:00:39.495Z,1017.81
2019-02-05T00:01:05.594Z,1017.76
2019-02-05T00:01:33.942Z,1017.92
2019-02-05T00:01:58.794Z,1017.74
2019-02-05T00:02:24.904Z,1017.8
2019-02-05T00:02:51.385Z,1017.7
2019-02-05T00:03:17.490Z,1017.72
2019-02-05T00:03:43.733Z,1017.81
2019-02-05T00:04:10.146Z,1017.78
2019-02-05T00:04:36.252Z,1017.78
2019-02-05T00:05:02.388Z,1017.8
2019-02-05T00:05:28.728Z,1017.83
2019-02-05T00:05:54.826Z,1017.81
2019-02-05T00:06:21.179Z,1017.84
2019-02-05T00:06:47.314Z,1017.85
2019-02-05T00:07:13.415Z,1017.85
2019-02-05T00:07:39.783Z,1017.89
2019-02-05T00:08:05.885Z,1017.89
2019-02-05T00:08:32.279Z,1017.89
2019-02-05T00:08:58.414Z,1017.85
2019-02-05T00:09:24.518Z,1017.89
2019-02-05T00:09:50.991Z,1017.81
2019-02-05T00:10:17.148Z,1017.92
2019-02-05T00:10:43.281Z,1017.88
2019-02-05T00:11:09.761Z,1017.83
2019-02-05T00:11:35.862Z,1017.82
2019-02-05T00:12:02.542Z,1017.88
2019-02-05T00:12:28.692Z,1017.83
2019-02-05T00:12:54.798Z,1017.8
2019-02-05T00:13:21.139Z,1017.88
2019-02-05T00:13:47.244Z,1017.87
2019-02-05T00:14:13.351Z,1017.9
2019-02-05T00:14:39.786Z,1017.92
2019-02-05T00:15:05.924Z,1017.87
2019-02-05T00:15:32.076Z,1017.83
2019-02-05T00:15:58.305Z,1017.77
2019-02-05T00:16:24.433Z,1017.87
2019-02-05T00:16:50.757Z,1017.84
2019-02-05T00:17:16.865Z,1017.84
2019-02-05T00:17:43.229Z,1017.88
2019-02-05T00:18:09.341Z,1017.87
2019-02-05T00:18:35.442Z,1017.87
2019-02-05T00:19:02.198Z,1017.96
2019-02-05T00:19:28.453Z,1017.84
2019-02-05T00:19:54.593Z,1017.96
2019-02-05T00:20:21.183Z,1017.9
2019-02-05T00:20:47.361Z,1017.88
2019-02-05T00:21:13.600Z,1017.85
2019-02-05T00:21:39.704Z,1017.89
2019-02-05T00:22:05.806Z,1017.89
2019-02-05T00:22:32.379Z,1017.87
2019-02-05T00:22:58.517Z,1017.86
2019-02-05T00:23:24.623Z,1017.82
2019-02-05T00:23:50.842Z,1017.92
2019-02-05T00:24:16.948Z,1017.94
2019-02-05T00:24:43.317Z,1017.95
2019-02-05T00:25:09.424Z,1017.9
2019-02-05T00:25:35.526Z,1017.97
2019-02-05T00:26:06.034Z,1017.97
2019-02-05T00:26:29.989Z,1017.91
2019-02-05T00:26:56.306Z,1018
2019-02-05T00:27:22.412Z,1018.06
2019-02-05T00:27:48.524Z,1017.98
2019-02-05T00:28:14.882Z,1018.04
2019-02-05T00:28:40.984Z,1018.05
2019-02-05T00:29:07.163Z,1018.07
2019-02-05T00:29:33.553Z,1018.14
2019-02-05T00:29:59.656Z,1018.09
2019-02-05T00:30:26.016Z,1018.15
2019-02-05T00:30:52.119Z,1018.07
2019-02-05T00:31:18.226Z,1018.08
2019-02-05T00:31:44.597Z,1018.1
2019-02-05T00:32:10.709Z,1018.12
2019-02-05T00:32:37.123Z,1018.12
2019-02-05T00:33:03.366Z,1018.11
2019-02-05T00:33:29.452Z,1018.15
2019-02-05T00:33:55.849Z,1018.13
2019-02-05T00:34:21.982Z,1018.14
2019-02-05T00:34:48.086Z,1018.12
2019-02-05T00:35:14.570Z,1018.14
2019-02-05T00:35:40.680Z,1018.15
2019-02-05T00:36:07.014Z,1018.18
2019-02-05T00:36:33.154Z,1018.1
2019-02-05T00:36:59.288Z,1018.2
2019-02-05T00:37:25.675Z,1018.22
2019-02-05T00:37:51.811Z,1018.15
2019-02-05T00:38:17.984Z,1018.12
2019-02-05T00:38:44.108Z,1018.16
2019-02-05T00:39:10.201Z,1018.13
2019-02-05T00:39:36.584Z,1018.16
2019-02-05T00:40:02.728Z,1018.14
2019-02-05T00:40:28.894Z,1018.11
2019-02-05T00:40:55.352Z,1018.13
2019-02-05T00:41:21.451Z,1018.15
2019-02-05T00:41:47.834Z,1018.13
2019-02-05T00:42:14.124Z,1018.13
2019-02-05T00:42:40.235Z,1018.16
2019-02-05T00:43:06.950Z,1018.12
2019-02-05T00:43:33.063Z,1018.16
2019-02-05T00:43:59.208Z,1018.19
2019-02-05T00:44:25.539Z,1018.15
2019-02-05T00:44:51.643Z,1018.13
2019-02-05T00:45:18.104Z,1018.19
2019-02-05T00:45:44.208Z,1018.15
2019-02-05T00:46:10.311Z,1018.22
2019-02-05T00:46:36.666Z,1018.17
2019-02-05T00:47:02.775Z,1018.17
2019-02-05T00:47:28.876Z,1018.2
2019-02-05T00:47:55.455Z,1018.12
2019-02-05T00:48:21.587Z,1018.19
2019-02-05T00:48:47.847Z,1018.11
2019-02-05T00:49:13.950Z,1018.22
2019-02-05T00:49:40.063Z,1018.31
2019-02-05T00:50:06.456Z,1018.25
2019-02-05T00:50:32.577Z,1018.25
2019-02-05T00:50:59.020Z,1018.19
2019-02-05T00:51:25.239Z,1018.14
2019-02-05T00:51:51.343Z,1018.22
2019-02-05T00:52:17.740Z,1018.17
2019-02-05T00:52:43.883Z,1018.15
2019-02-05T00:53:09.986Z,1018.13
2019-02-05T00:53:36.306Z,1018.11
2019-02-05T00:54:02.418Z,1018.24
2019-02-05T00:54:28.794Z,1018.13
2019-02-05T00:54:54.896Z,1017.98
2019-02-05T00:55:21.153Z,1018.2
2019-02-05T00:55:47.557Z,1018.17
2019-02-05T00:56:17.459Z,1018.23
2019-02-05T00:56:41.761Z,1018.19
2019-02-05T00:57:08.093Z,1018.19
2019-02-05T00:57:34.191Z,1018.21
2019-02-05T00:58:00.486Z,1018.2
2019-02-05T00:58:26.587Z,1018.21
2019-02-05T00:58:52.683Z,1018.18
2019-02-05T00:59:19.055Z,1018.17
2019-02-05T00:59:45.159Z,1018.17
2019-02-05T01:00:11.647Z,1018.2
2019-02-05T01:00:37.857Z,1018.26
2019-02-05T01:01:03.962Z,1018.22
2019-02-05T01:01:31.083Z,1018.25
2019-02-05T01:01:57.187Z,1018.24
2019-02-05T01:02:23.291Z,1018.27
2019-02-05T01:02:49.651Z,1018.28
2019-02-05T01:03:15.810Z,1018.25
2019-02-05T01:03:42.124Z,1018.25
2019-02-05T01:04:08.228Z,1018.21
2019-02-05T01:04:34.357Z,1018.27
2019-02-05T01:05:00.976Z,1018.24
2019-02-05T01:05:27.130Z,1018.27
2019-02-05T01:05:53.487Z,1018.32
2019-02-05T01:06:19.734Z,1018.33
2019-02-05T01:06:45.840Z,1018.25
2019-02-05T01:07:12.152Z,1018.39
2019-02-05T01:07:38.257Z,1018.26
2019-02-05T01:08:04.397Z,1018.41
2019-02-05T01:08:30.769Z,1018.33
2019-02-05T01:08:56.869Z,1018.36
2019-02-05T01:09:23.247Z,1018.4
2019-02-05T01:09:49.626Z,1018.41
2019-02-05T01:10:15.705Z,1018.33
2019-02-05T01:10:42.112Z,1018.34
2019-02-05T01:11:08.219Z,1018.42
2019-02-05T01:11:34.322Z,1018.39
2019-02-05T01:12:01.204Z,1018.41
2019-02-05T01:12:27.339Z,1018.33
2019-02-05T01:12:53.662Z,1018.38
2019-02-05T01:13:19.794Z,1018.38
2019-02-05T01:13:45.896Z,1018.43
2019-02-05T01:14:12.272Z,1018.33
2019-02-05T01:14:38.402Z,1018.36
2019-02-05T01:15:04.782Z,1018.34
2019-02-05T01:15:30.896Z,1018.37
2019-02-05T01:15:57.003Z,1018.38
2019-02-05T01:16:23.495Z,1018.29
2019-02-05T01:16:49.600Z,1018.44
2019-02-05T01:17:15.697Z,1018.38
2019-02-05T01:17:42.246Z,1018.35
2019-02-05T01:18:08.363Z,1018.32
2019-02-05T01:18:34.567Z,1018.32
2019-02-05T01:19:00.679Z,1018.31
2019-02-05T01:19:26.781Z,1018.19
2019-02-05T01:19:53.133Z,1018.26
2019-02-05T01:20:19.242Z,1018.25
2019-02-05T01:20:45.367Z,1018.26
2019-02-05T01:21:11.720Z,1018.21
2019-02-05T01:21:37.823Z,1018.33
2019-02-05T01:22:04.273Z,1018.26
2019-02-05T01:22:30.438Z,1018.27
2019-02-05T01:22:56.542Z,1018.26
2019-02-05T01:23:22.960Z,1018.3
2019-02-05T01:23:49.066Z,1018.22
2019-02-05T01:24:15.412Z,1018.22
2019-02-05T01:24:41.633Z,1018.17
2019-02-05T01:25:07.760Z,1018.21
2019-02-05T01:25:34.401Z,1018.21
2019-02-05T01:26:00.505Z,1018.14
2019-02-05T01:26:29.200Z,1018.22
2019-02-05T01:26:54.706Z,1018.17
2019-02-05T01:27:20.809Z,1018.23
2019-02-05T01:27:47.197Z,1018.22
2019-02-05T01:28:13.297Z,1018.25
2019-02-05T01:28:39.399Z,1018.28
2019-02-05T01:29:05.911Z,1018.27
2019-02-05T01:29:32.019Z,1018.29
2019-02-05T01:29:58.464Z,1018.24
2019-02-05T01:30:24.735Z,1018.15
2019-02-05T01:30:50.843Z,1018.2
2019-02-05T01:31:17.045Z,1018.23
2019-02-05T01:31:43.181Z,1018.22
2019-02-05T01:32:09.286Z,1018.19
2019-02-05T01:32:35.817Z,1018.15
2019-02-05T01:33:01.915Z,1018.2
2019-02-05T01:33:28.332Z,1018.19
2019-02-05T01:33:54.443Z,1018.22
2019-02-05T01:34:20.546Z,1018.13
2019-02-05T01:34:46.878Z,1018.15
2019-02-05T01:35:13.021Z,1018.18
2019-02-05T01:35:39.192Z,1018.13
2019-02-05T01:36:05.492Z,1018.11
2019-02-05T01:36:31.595Z,1018.11
2019-02-05T01:36:57.980Z,1018.1
2019-02-05T01:37:24.102Z,1018.19
2019-02-05T01:37:50.210Z,1018.14
2019-02-05T01:38:16.740Z,1018.09
2019-02-05T01:38:42.869Z,1018.13
2019-02-05T01:39:09.219Z,1018.21
2019-02-05T01:39:35.314Z,1018.18
2019-02-05T01:40:01.425Z,1018.17
2019-02-05T01:40:27.893Z,1018.13
2019-02-05T01:40:53.992Z,1018.15
2019-02-05T01:41:20.099Z,1018.18
2019-02-05T01:41:46.579Z,1018.16
2019-02-05T01:42:12.683Z,1018.14
2019-02-05T01:42:38.987Z,1018.11
2019-02-05T01:43:05.092Z,1018.15
2019-02-05T01:43:31.217Z,1018.17
2019-02-05T01:43:57.510Z,1018.21
2019-02-05T01:44:23.616Z,1018.28
2019-02-05T01:44:49.722Z,1018.13
2019-02-05T01:45:16.065Z,1018.24
2019-02-05T01:45:42.166Z,1018.32
2019-02-05T01:46:08.494Z,1018.2
2019-02-05T01:46:34.596Z,1018.24
2019-02-05T01:47:00.698Z,1018.29
2019-02-05T01:47:27.034Z,1018.21
2019-02-05T01:47:53.139Z,1018.21
2019-02-05T01:48:19.615Z,1018.28
2019-02-05T01:48:45.984Z,1018.32
2019-02-05T01:49:12.090Z,1018.2
2019-02-05T01:49:38.695Z,1018.27
2019-02-05T01:50:04.802Z,1018.18
2019-02-05T01:50:30.909Z,1018.18
2019-02-05T01:50:57.310Z,1018.23
2019-02-05T01:51:23.438Z,1018.24
2019-02-05T01:51:49.835Z,1018.27
2019-02-05T01:52:15.973Z,1018.28
2019-02-05T01:52:42.074Z,1018.25
2019-02-05T01:53:08.526Z,1018.26
2019-02-05T01:53:34.635Z,1018.25
2019-02-05T01:54:00.738Z,1018.25
2019-02-05T01:54:27.168Z,1018.25
2019-02-05T01:54:53.268Z,1018.27
2019-02-05T01:55:19.394Z,1018.26
2019-02-05T01:55:45.532Z,1018.25
2019-02-05T01:56:11.633Z,1018.25
2019-02-05T01:56:40.532Z,1018.31
2019-02-05T01:57:06.339Z,1018.26
2019-02-05T01:57:32.664Z,1018.29
2019-02-05T01:57:58.759Z,1018.26
2019-02-05T01:58:24.897Z,1018.22
2019-02-05T01:58:51.829Z,1018.25
2019-02-05T01:59:17.928Z,1018.29
2019-02-05T01:59:44.106Z,1018.3
2019-02-05T02:00:10.416Z,1018.31
2019-02-05T02:00:36.519Z,1018.3
2019-02-05T02:01:02.941Z,1018.3
2019-02-05T02:01:29.067Z,1018.37
2019-02-05T02:01:55.196Z,1018.33
2019-02-05T02:02:21.834Z,1018.26
2019-02-05T02:02:47.945Z,1018.32
2019-02-05T02:03:14.049Z,1018.34
2019-02-05T02:03:40.346Z,1018.37
2019-02-05T02:04:06.522Z,1018.35
2019-02-05T02:04:32.796Z,1018.38
2019-02-05T02:04:58.897Z,1018.37
2019-02-05T02:05:25.037Z,1018.42
2019-02-05T02:05:51.396Z,1018.42
2019-02-05T02:06:17.508Z,1018.39
2019-02-05T02:06:43.852Z,1018.36
2019-02-05T02:07:09.987Z,1018.36
2019-02-05T02:07:36.097Z,1018.28
2019-02-05T02:08:02.492Z,1018.34
2019-02-05T02:08:28.589Z,1018.37
2019-02-05T02:08:54.688Z,1018.32
2019-02-05T02:09:21.258Z,1018.31
2019-02-05T02:09:47.376Z,1018.33
2019-02-05T02:10:14.081Z,1018.4
2019-02-05T02:10:40.180Z,1018.34
2019-02-05T02:11:06.295Z,1018.36
2019-02-05T02:11:32.613Z,1018.33
2019-02-05T02:11:58.751Z,1018.33
2019-02-05T02:12:24.881Z,1018.33
2019-02-05T02:12:51.141Z,1018.36
2019-02-05T02:13:17.272Z,1018.29
2019-02-05T02:13:43.699Z,1018.3
2019-02-05T02:14:09.803Z,1018.28
2019-02-05T02:14:35.906Z,1018.28
2019-02-05T02:15:02.283Z,1018.29
2019-02-05T02:15:28.419Z,1018.23
2019-02-05T02:15:54.803Z,1018.22
2019-02-05T02:16:21.103Z,1018.24
2019-02-05T02:16:47.211Z,1018.22
2019-02-05T02:17:13.509Z,1018.22
2019-02-05T02:17:39.632Z,1018.33
2019-02-05T02:18:05.733Z,1018.3
2019-02-05T02:18:32.039Z,1018.23
2019-02-05T02:18:58.142Z,1018.24
2019-02-05T02:19:24.599Z,1018.19
2019-02-05T02:19:50.723Z,1018.18
2019-02-05T02:20:16.834Z,1018.2
2019-02-05T02:20:43.314Z,1018.2
2019-02-05T02:21:09.450Z,1018.17
2019-02-05T02:21:35.554Z,1018.18
2019-02-05T02:22:01.950Z,1018.2
2019-02-05T02:22:28.057Z,1018.19
2019-02-05T02:22:54.519Z,1018.23
2019-02-05T02:23:20.653Z,1018.2
2019-02-05T02:23:46.794Z,1018.32
2019-02-05T02:24:13.301Z,1018.27
2019-02-05T02:24:39.408Z,1018.27
2019-02-05T02:25:05.832Z,1018.29
2019-02-05T02:25:32.191Z,1018.3
2019-02-05T02:25:58.294Z,1018.23
2019-02-05T02:26:24.628Z,1018.23
2019-02-05T02:26:52.707Z,1018.26
2019-02-05T02:27:18.813Z,1018.3
2019-02-05T02:27:45.350Z,1018.24
2019-02-05T02:28:11.462Z,1018.29
2019-02-05T02:28:37.949Z,1018.31
2019-02-05T02:29:04.060Z,1018.28
2019-02-05T02:29:30.166Z,1018.24
2019-02-05T02:29:56.545Z,1018.24
2019-02-05T02:30:22.677Z,1018.19
2019-02-05T02:30:48.817Z,1018.23
2019-02-05T02:31:15.128Z,1018.29
2019-02-05T02:31:41.269Z,1018.18
2019-02-05T02:32:07.628Z,1018.21
2019-02-05T02:32:33.733Z,1018.21
2019-02-05T02:32:59.842Z,1018.19
2019-02-05T02:33:26.327Z,1018.25
2019-02-05T02:33:52.456Z,1018.11
2019-02-05T02:34:18.813Z,1018.23
2019-02-05T02:34:44.933Z,1018.2
2019-02-05T02:35:11.027Z,1018.19
2019-02-05T02:35:37.343Z,1018.24
2019-02-05T02:36:03.505Z,1018.26
2019-02-05T02:36:29.610Z,1018.19
2019-02-05T02:36:55.942Z,1018.28
2019-02-05T02:37:22.031Z,1018.31
2019-02-05T02:37:48.373Z,1018.23
2019-02-05T02:38:14.505Z,1018.21
2019-02-05T02:38:40.614Z,1018.26
2019-02-05T02:39:07.031Z,1018.28
2019-02-05T02:39:33.175Z,1018.46
2019-02-05T02:39:59.272Z,1018.28
2019-02-05T02:40:25.769Z,1018.25
2019-02-05T02:40:51.928Z,1018.24
2019-02-05T02:41:18.325Z,1018.4
2019-02-05T02:41:44.428Z,1018.24
2019-02-05T02:42:10.641Z,1018.28
2019-02-05T02:42:37.016Z,1018.23
2019-02-05T02:43:03.132Z,1018.25
2019-02-05T02:43:29.664Z,1018.18
2019-02-05T02:43:55.719Z,1018.24
2019-02-05T02:44:21.853Z,1018.26
2019-02-05T02:44:48.313Z,1018.22
2019-02-05T02:45:14.446Z,1018.26
2019-02-05T02:45:40.542Z,1018.22
2019-02-05T02:46:07.010Z,1018.26
2019-02-05T02:46:33.119Z,1018.24
2019-02-05T02:46:59.507Z,1018.27
2019-02-05T02:47:27.695Z,1018.24
2019-02-05T02:47:52.740Z,1018.28
2019-02-05T02:48:19.056Z,1018.26
2019-02-05T02:48:45.188Z,1018.26
2019-02-05T02:49:11.294Z,1018.28
2019-02-05T02:49:37.642Z,1018.27
2019-02-05T02:50:03.769Z,1018.31
2019-02-05T02:50:30.200Z,1018.29
2019-02-05T02:50:56.312Z,1018.22
2019-02-05T02:51:22.440Z,1018.3
2019-02-05T02:51:48.740Z,1018.35
2019-02-05T02:52:14.903Z,1018.35
2019-02-05T02:52:41.028Z,1018.3
2019-02-05T02:53:07.158Z,1018.4
2019-02-05T02:53:33.282Z,1018.36
2019-02-05T02:53:59.757Z,1018.33
2019-02-05T02:54:25.859Z,1018.36
2019-02-05T02:54:51.960Z,1018.37
2019-02-05T02:55:19.159Z,1018.32
2019-02-05T02:55:45.260Z,1018.28
2019-02-05T02:56:11.749Z,1018.35
2019-02-05T02:56:37.851Z,1018.4
2019-02-05T02:57:05.159Z,1018.39
2019-02-05T02:57:31.643Z,1018.33
2019-02-05T02:57:57.740Z,1018.34
2019-02-05T02:58:24.388Z,1018.37
2019-02-05T02:58:50.654Z,1018.36
2019-02-05T02:59:16.756Z,1018.32
2019-02-05T02:59:43.110Z,1018.32
2019-02-05T03:00:09.218Z,1018.32
2019-02-05T03:00:35.321Z,1018.35
2019-02-05T03:01:01.763Z,1018.31
2019-02-05T03:01:27.867Z,1018.4
2019-02-05T03:01:54.265Z,1018.38
2019-02-05T03:02:20.376Z,1018.41
2019-02-05T03:02:46.494Z,1018.42
2019-02-05T03:03:13.071Z,1018.45
2019-02-05T03:03:39.172Z,1018.42
2019-02-05T03:04:05.363Z,1018.39
2019-02-05T03:04:31.721Z,1018.42
2019-02-05T03:04:57.860Z,1018.35
2019-02-05T03:05:24.170Z,1018.41
2019-02-05T03:05:50.275Z,1018.39
2019-02-05T03:06:16.404Z,1018.37
2019-02-05T03:06:42.757Z,1018.37
2019-02-05T03:07:08.888Z,1018.41
2019-02-05T03:07:34.992Z,1018.37
2019-02-05T03:08:01.746Z,1018.39
2019-02-05T03:08:27.856Z,1018.39
2019-02-05T03:08:54.427Z,1018.38
2019-02-05T03:09:20.562Z,1018.35
2019-02-05T03:09:46.738Z,1018.36
2019-02-05T03:10:12.820Z,1018.35
2019-02-05T03:10:38.953Z,1018.32
2019-02-05T03:11:05.088Z,1018.28
2019-02-05T03:11:31.532Z,1018.36
2019-02-05T03:11:57.634Z,1018.32
2019-02-05T03:12:24.095Z,1018.34
2019-02-05T03:12:50.195Z,1018.28
2019-02-05T03:13:16.305Z,1018.3
2019-02-05T03:13:42.651Z,1018.31
2019-02-05T03:14:08.816Z,1018.32
2019-02-05T03:14:34.933Z,1018.33
2019-02-05T03:15:01.399Z,1018.36
2019-02-05T03:15:27.485Z,1018.34
2019-02-05T03:15:53.617Z,1018.35
2019-02-05T03:16:19.764Z,1018.4
2019-02-05T03:16:45.864Z,1018.31
2019-02-05T03:17:12.338Z,1018.35
2019-02-05T03:17:38.523Z,1018.36
2019-02-05T03:18:04.754Z,1018.37
2019-02-05T03:18:31.210Z,1018.35
2019-02-05T03:18:57.346Z,1018.36
2019-02-05T03:19:23.718Z,1018.36
2019-02-05T03:19:49.823Z,1018.36
2019-02-05T03:20:16.187Z,1018.34
2019-02-05T03:20:42.807Z,1018.41
2019-02-05T03:21:08.921Z,1018.42
2019-02-05T03:21:35.049Z,1018.48
2019-02-05T03:22:01.451Z,1018.35
2019-02-05T03:22:27.579Z,1018.41
2019-02-05T03:22:53.723Z,1018.38
2019-02-05T03:23:19.843Z,1018.39
2019-02-05T03:23:45.945Z,1018.49
2019-02-05T03:24:12.316Z,1018.41
2019-02-05T03:24:38.397Z,1018.42
2019-02-05T03:25:04.537Z,1018.33
2019-02-05T03:25:30.969Z,1018.39
2019-02-05T03:25:57.074Z,1018.34
2019-02-05T03:26:23.438Z,1018.35
2019-02-05T03:26:49.544Z,1018.36
2019-02-05T03:27:18.442Z,1018.34
2019-02-05T03:27:44.964Z,1018.35
2019-02-05T03:28:12.057Z,1018.33
2019-02-05T03:28:38.362Z,1018.35
2019-02-05T03:29:04.476Z,1018.36
2019-02-05T03:29:30.578Z,1018.39
2019-02-05T03:29:56.945Z,1018.39
2019-02-05T03:30:23.107Z,1018.34
2019-02-05T03:30:49.239Z,1018.45
2019-02-05T03:31:16.385Z,1018.42
2019-02-05T03:31:42.567Z,1018.44
2019-02-05T03:32:09.017Z,1018.38
2019-02-05T03:32:35.118Z,1018.33
2019-02-05T03:33:01.357Z,1018.35
2019-02-05T03:33:27.501Z,1018.37
2019-02-05T03:33:53.608Z,1018.34
2019-02-05T03:34:19.789Z,1018.35
2019-02-05T03:34:46.165Z,1018.32
2019-02-05T03:35:12.270Z,1018.28
2019-02-05T03:35:38.573Z,1018.33
2019-02-05T03:36:04.676Z,1018.34
2019-02-05T03:36:30.837Z,1018.27
2019-02-05T03:36:57.501Z,1018.34
2019-02-05T03:37:23.608Z,1018.38
2019-02-05T03:37:49.791Z,1018.36
2019-02-05T03:38:16.175Z,1018.38
2019-02-05T03:38:42.403Z,1018.36
2019-02-05T03:39:08.699Z,1018.36
2019-02-05T03:39:34.840Z,1018.41
2019-02-05T03:40:00.940Z,1018.42
2019-02-05T03:40:27.249Z,1018.37
2019-02-05T03:40:53.350Z,1018.44
2019-02-05T03:41:19.770Z,1018.45
2019-02-05T03:41:46.003Z,1018.48
2019-02-05T03:42:12.109Z,1018.5
2019-02-05T03:42:38.316Z,1018.44
2019-02-05T03:43:04.416Z,1018.47
2019-02-05T03:43:30.510Z,1018.46
2019-02-05T03:43:56.905Z,1018.47
2019-02-05T03:44:23.039Z,1018.4
2019-02-05T03:44:49.196Z,1018.48
2019-02-05T03:45:15.393Z,1018.47
2019-02-05T03:45:41.528Z,1018.53
2019-02-05T03:46:08.187Z,1018.49
2019-02-05T03:46:34.293Z,1018.52
2019-02-05T03:47:00.402Z,1018.53
2019-02-05T03:47:26.671Z,1018.57
2019-02-05T03:47:52.768Z,1018.54
2019-02-05T03:48:19.044Z,1018.49
2019-02-05T03:48:45.152Z,1018.59
2019-02-05T03:49:11.257Z,1018.54
2019-02-05T03:49:37.651Z,1018.54
2019-02-05T03:50:03.754Z,1018.54
2019-02-05T03:50:29.860Z,1018.54
2019-02-05T03:50:56.217Z,1018.57
2019-02-05T03:51:22.347Z,1018.56
2019-02-05T03:51:48.784Z,1018.5
2019-02-05T03:52:14.893Z,1018.56
2019-02-05T03:52:40.998Z,1018.52
2019-02-05T03:53:07.242Z,1018.61
2019-02-05T03:53:33.347Z,1018.55
2019-02-05T03:53:59.479Z,1018.56
2019-02-05T03:54:25.763Z,1018.52
2019-02-05T03:54:51.877Z,1018.54
2019-02-05T03:55:18.507Z,1018.53
2019-02-05T03:55:44.639Z,1018.53
2019-02-05T03:56:10.743Z,1018.52
2019-02-05T03:56:36.872Z,1018.49
2019-02-05T03:57:03.029Z,1018.53
2019-02-05T03:57:30.761Z,1018.5
2019-02-05T03:57:56.299Z,1018.58
2019-02-05T03:58:22.402Z,1018.57
2019-02-05T03:58:48.681Z,1018.56
2019-02-05T03:59:14.841Z,1018.59
2019-02-05T03:59:40.944Z,1018.56
2019-02-05T04:00:07.303Z,1018.58
2019-02-05T04:00:33.438Z,1018.57
2019-02-05T04:00:59.556Z,1018.55
2019-02-05T04:01:25.666Z,1018.56
2019-02-05T04:01:51.799Z,1018.5
2019-02-05T04:02:18.263Z,1018.58
2019-02-05T04:02:44.360Z,1018.59
2019-02-05T04:03:10.469Z,1018.53
2019-02-05T04:03:36.909Z,1018.55
2019-02-05T04:04:02.988Z,1018.52
2019-02-05T04:04:29.218Z,1018.54
2019-02-05T04:04:55.327Z,1018.48
2019-02-05T04:05:21.538Z,1018.53
2019-02-05T04:05:48.564Z,1018.5
2019-02-05T04:06:14.694Z,1018.51
2019-02-05T04:06:40.829Z,1018.51
2019-02-05T04:07:07.092Z,1018.44
2019-02-05T04:07:33.209Z,1018.42
2019-02-05T04:07:59.560Z,1018.44
2019-02-05T04:08:25.666Z,1018.49
2019-02-05T04:08:51.763Z,1018.49
2019-02-05T04:09:18.284Z,1018.5
2019-02-05T04:09:44.419Z,1018.47
2019-02-05T04:10:10.802Z,1018.47
2019-02-05T04:10:36.910Z,1018.46
2019-02-05T04:11:03.011Z,1018.43
2019-02-05T04:11:29.593Z,1018.5
2019-02-05T04:11:55.697Z,1018.47
2019-02-05T04:12:22.620Z,1018.46
2019-02-05T04:12:49.093Z,1018.47
2019-02-05T04:13:15.197Z,1018.49
2019-02-05T04:13:41.732Z,1018.46
2019-02-05T04:14:07.840Z,1018.48
2019-02-05T04:14:33.970Z,1018.46
2019-02-05T04:15:00.444Z,1018.44
2019-02-05T04:15:26.532Z,1018.44
2019-02-05T04:15:52.668Z,1018.4
2019-02-05T04:16:18.906Z,1018.44
2019-02-05T04:16:45.013Z,1018.44
2019-02-05T04:17:11.157Z,1018.42
2019-02-05T04:17:37.344Z,1018.43
2019-02-05T04:18:03.406Z,1018.44
2019-02-05T04:18:29.835Z,1018.45
2019-02-05T04:18:55.974Z,1018.47
2019-02-05T04:19:22.427Z,1018.44
2019-02-05T04:19:48.621Z,1018.43
2019-02-05T04:20:14.722Z,1018.41
2019-02-05T04:20:41.253Z,1018.41
2019-02-05T04:21:07.388Z,1018.43
2019-02-05T04:21:33.526Z,1018.45
2019-02-05T04:22:00.212Z,1018.51
2019-02-05T04:22:26.361Z,1018.44
2019-02-05T04:22:52.633Z,1018.39
2019-02-05T04:23:18.767Z,1018.46
2019-02-05T04:23:44.868Z,1018.42
2019-02-05T04:24:11.075Z,1018.39
2019-02-05T04:24:37.181Z,1018.49
2019-02-05T04:25:03.352Z,1018.46
2019-02-05T04:25:29.702Z,1018.45
2019-02-05T04:25:55.812Z,1018.51
2019-02-05T04:26:22.162Z,1018.46
2019-02-05T04:26:48.277Z,1018.51
2019-02-05T04:27:14.402Z,1018.47
2019-02-05T04:27:43.897Z,1018.55
2019-02-05T04:28:08.895Z,1018.42
2019-02-05T04:28:35.028Z,1018.47
2019-02-05T04:29:01.141Z,1018.46
2019-02-05T04:29:27.242Z,1018.43
2019-02-05T04:29:53.745Z,1018.47
2019-02-05T04:30:19.852Z,1018.43
2019-02-05T04:30:45.965Z,1018.4
2019-02-05T04:31:12.615Z,1018.44
2019-02-05T04:31:38.721Z,1018.39
2019-02-05T04:32:05.097Z,1018.39
2019-02-05T04:32:31.208Z,1018.36
2019-02-05T04:32:57.325Z,1018.38
2019-02-05T04:33:23.606Z,1018.38
2019-02-05T04:33:49.715Z,1018.38
2019-02-05T04:34:15.845Z,1018.38
2019-02-05T04:34:42.171Z,1018.42
2019-02-05T04:35:08.305Z,1018.43
2019-02-05T04:35:34.634Z,1018.46
2019-02-05T04:36:00.729Z,1018.45
2019-02-05T04:36:26.884Z,1018.43
2019-02-05T04:36:53.216Z,1018.49
2019-02-05T04:37:19.314Z,1018.49
2019-02-05T04:37:45.760Z,1018.51
2019-02-05T04:38:11.966Z,1018.52
2019-02-05T04:38:38.092Z,1018.51
2019-02-05T04:39:04.630Z,1018.56
2019-02-05T04:39:30.754Z,1018.51
2019-02-05T04:39:56.859Z,1018.56
2019-02-05T04:40:23.212Z,1018.54
2019-02-05T04:40:49.351Z,1018.5
2019-02-05T04:41:15.689Z,1018.56
2019-02-05T04:41:41.826Z,1018.6
2019-02-05T04:42:07.937Z,1018.53
2019-02-05T04:42:34.755Z,1018.61
2019-02-05T04:43:00.862Z,1018.61
2019-02-05T04:43:26.971Z,1018.54
2019-02-05T04:43:53.312Z,1018.62
2019-02-05T04:44:19.419Z,1018.55
2019-02-05T04:44:45.637Z,1018.62
2019-02-05T04:45:11.789Z,1018.59
2019-02-05T04:45:39.906Z,1018.58
2019-02-05T04:46:06.270Z,1018.6
2019-02-05T04:46:32.371Z,1018.61
2019-02-05T04:46:58.734Z,1018.59
2019-02-05T04:47:24.835Z,1018.53
2019-02-05T04:47:50.941Z,1018.42
2019-02-05T04:48:17.292Z,1018.58
2019-02-05T04:48:43.796Z,1018.58
2019-02-05T04:49:09.884Z,1018.58
2019-02-05T04:49:36.458Z,1018.64
2019-02-05T04:50:02.590Z,1018.57
2019-02-05T04:50:28.830Z,1018.54
2019-02-05T04:50:55.109Z,1018.57
2019-02-05T04:51:21.233Z,1018.5
2019-02-05T04:51:47.752Z,1018.55
2019-02-05T04:52:13.862Z,1018.58
2019-02-05T04:52:39.999Z,1018.57
2019-02-05T04:53:06.318Z,1018.57
2019-02-05T04:53:32.420Z,1018.55
2019-02-05T04:53:58.812Z,1018.56
2019-02-05T04:54:24.918Z,1018.58
2019-02-05T04:54:51.027Z,1018.59
2019-02-05T04:55:17.444Z,1018.62
2019-02-05T04:55:43.580Z,1018.59
2019-02-05T04:56:10.154Z,1018.59
2019-02-05T04:56:36.267Z,1018.56
2019-02-05T04:57:02.374Z,1018.58
2019-02-05T04:57:28.983Z,1018.6
2019-02-05T04:58:00.825Z,1018.6
2019-02-05T04:58:24.240Z,1018.59
2019-02-05T04:58:50.375Z,1018.64
2019-02-05T04:59:16.490Z,1018.6
2019-02-05T04:59:42.803Z,1018.63
2019-02-05T05:00:08.909Z,1018.57
2019-02-05T05:00:35.012Z,1018.65
2019-02-05T05:01:01.707Z,1018.66
2019-02-05T05:01:27.763Z,1018.65
2019-02-05T05:01:54.127Z,1018.62
2019-02-05T05:02:20.407Z,1018.68
2019-02-05T05:02:46.548Z,1018.64
2019-02-05T05:03:12.962Z,1018.62
2019-02-05T05:03:39.137Z,1018.66
2019-02-05T05:04:05.299Z,1018.65
2019-02-05T05:04:31.615Z,1018.63
2019-02-05T05:04:57.714Z,1018.67
2019-02-05T05:05:24.039Z,1018.62
2019-02-05T05:05:50.196Z,1018.67
2019-02-05T05:06:16.306Z,1018.67
2019-02-05T05:06:42.615Z,1018.67
2019-02-05T05:07:08.749Z,1018.64
2019-02-05T05:07:34.891Z,1018.62
2019-02-05T05:08:01.281Z,1018.65
2019-02-05T05:08:27.372Z,1018.62
2019-02-05T05:08:53.838Z,1018.65
2019-02-05T05:09:19.940Z,1018.67
2019-02-05T05:09:46.037Z,1018.68
2019-02-05T05:10:12.182Z,1018.7
2019-02-05T05:10:38.287Z,1018.67
2019-02-05T05:11:04.447Z,1018.67
2019-02-05T05:11:30.806Z,1018.67
2019-02-05T05:11:56.986Z,1018.73
2019-02-05T05:12:23.305Z,1018.7
2019-02-05T05:12:49.441Z,1018.7
2019-02-05T05:13:15.575Z,1018.69
2019-02-05T05:13:42.121Z,1018.74
2019-02-05T05:14:08.250Z,1018.7
2019-02-05T05:14:34.665Z,1018.71
2019-02-05T05:15:01.003Z,1018.7
2019-02-05T05:15:27.150Z,1018.7
2019-02-05T05:15:53.396Z,1018.71
2019-02-05T05:16:19.545Z,1018.66
2019-02-05T05:16:45.708Z,1018.72
2019-02-05T05:17:12.103Z,1018.71
2019-02-05T05:17:38.261Z,1018.71
2019-02-05T05:18:04.631Z,1018.77
2019-02-05T05:18:31.347Z,1018.71